Time;durP1;ratioP1;P1;durP2;ratioP2;P2;SDS_P1;SDS_P2;PMS_P1;PMS_P2;Temp;Humidity;BMP_temperature;BMP_pressure;BME280_temperature;BME280_humidity;BME280_pressure;Samples;Min_cycle;Max_cycle;Signal;HPM_P1;HPM_P2
2021/09/20 00:01:32;;;;;;;10.20;7.23;;;;;;;11.52;91.01;95593.78;6134345;23;20234;-79
2021/09/20 00:03:58;;;;;;;8.43;7.63;;;;;;;11.55;91.74;95596.06;6134736;23;20162;-81
2021/09/20 00:06:23;;;;;;;10.40;7.90;;;;;;;11.59;91.69;95599.19;6133054;23;20215;-80
2021/09/20 00:08:49;;;;;;;10.47;8.20;;;;;;;11.61;91.93;95605.06;6135118;23;20195;-78
2021/09/20 00:11:15;;;;;;;11.03;8.17;;;;;;;11.62;91.96;95602.28;6159160;23;20448;-81
2021/09/20 00:13:40;;;;;;;10.03;8.10;;;;;;;11.66;91.55;95612.38;6157809;23;20159;-80
2021/09/20 00:16:05;;;;;;;9.63;8.23;;;;;;;11.66;91.12;95608.03;6158598;23;20175;-80
2021/09/20 00:18:31;;;;;;;10.23;8.27;;;;;;;11.62;90.79;95602.28;6159052;23;20590;-80
2021/09/20 00:20:56;;;;;;;10.03;8.40;;;;;;;11.63;90.89;95603.94;6159131;23;20152;-80
2021/09/20 00:23:21;;;;;;;10.33;8.53;;;;;;;11.57;90.69;95609.75;6158846;23;20158;-78
2021/09/20 00:25:47;;;;;;;9.77;8.77;;;;;;;11.63;90.88;95608.31;6133354;23;20179;-80
2021/09/20 00:28:13;;;;;;;10.77;8.60;;;;;;;11.55;90.74;95606.47;6158027;23;20822;-81
2021/09/20 00:30:40;;;;;;;9.43;8.43;;;;;;;11.60;91.17;95613.81;6160365;23;20156;-80
2021/09/20 00:33:05;;;;;;;10.77;7.73;;;;;;;11.59;91.53;95607.81;6158972;23;20182;-80
2021/09/20 00:35:31;;;;;;;10.30;9.20;;;;;;;11.56;91.61;95597.69;6157177;23;20637;-80
2021/09/20 00:37:57;;;;;;;11.13;9.03;;;;;;;11.60;91.91;95604.25;6132791;23;20162;-77
2021/09/20 00:40:22;;;;;;;9.90;8.90;;;;;;;11.57;91.79;95614.13;6159522;23;20151;-80
2021/09/20 00:42:47;;;;;;;10.27;9.17;;;;;;;11.57;92.04;95614.97;6132759;23;20182;-80
2021/09/20 00:45:13;;;;;;;11.43;8.83;;;;;;;11.63;92.20;95613.50;6157121;23;20183;-80
2021/09/20 00:47:38;;;;;;;11.10;9.30;;;;;;;11.64;92.39;95608.16;6157406;23;20159;-80
2021/09/20 00:50:04;;;;;;;10.30;9.20;;;;;;;11.67;92.42;95612.25;6133235;23;20180;-79
2021/09/20 00:52:29;;;;;;;10.50;9.50;;;;;;;11.70;92.31;95617.16;6156675;23;20163;-80
2021/09/20 00:54:55;;;;;;;11.93;8.97;;;;;;;11.70;92.30;95605.94;6155689;23;20179;-80
2021/09/20 00:57:21;;;;;;;14.17;11.10;;;;;;;11.69;92.31;95612.91;6157354;23;20164;-80
2021/09/20 00:59:46;;;;;;;11.53;10.23;;;;;;;11.72;92.31;95614.38;6156920;23;20148;-79
2021/09/20 01:02:12;;;;;;;14.37;10.93;;;;;;;11.72;92.32;95617.81;6132849;23;20166;-79
2021/09/20 01:04:38;;;;;;;13.60;10.23;;;;;;;11.73;92.59;95618.63;6134170;23;20170;-80
2021/09/20 01:07:03;;;;;;;11.70;9.77;;;;;;;11.76;92.47;95613.94;6155852;23;20629;-79
2021/09/20 01:09:29;;;;;;;10.97;9.47;;;;;;;11.79;92.78;95618.81;6132692;23;20179;-79
2021/09/20 01:11:54;;;;;;;15.23;10.57;;;;;;;11.80;92.47;95614.47;6156993;23;20170;-79
2021/09/20 01:14:20;;;;;;;12.57;9.87;;;;;;;11.80;92.49;95622.28;6133222;23;20159;-79
2021/09/20 01:16:45;;;;;;;12.20;10.90;;;;;;;11.76;92.81;95621.75;6158214;23;20182;-79
2021/09/20 01:19:10;;;;;;;13.43;10.80;;;;;;;11.74;92.55;95630.66;6157996;23;20152;-80
2021/09/20 01:21:36;;;;;;;13.23;10.73;;;;;;;11.77;93.13;95631.19;6157528;23;20194;-79
2021/09/20 01:24:02;;;;;;;14.30;11.13;;;;;;;11.77;93.56;95625.97;6156574;23;20206;-79
2021/09/20 01:26:27;;;;;;;14.50;11.73;;;;;;;11.79;93.03;95625.81;6133107;23;20578;-81
2021/09/20 01:28:52;;;;;;;13.90;12.13;;;;;;;11.80;93.51;95624.88;6158700;23;20254;-79
2021/09/20 01:31:19;;;;;;;15.77;12.43;;;;;;;11.81;93.15;95626.50;6133791;23;20155;-79
2021/09/20 01:33:45;;;;;;;15.07;11.83;;;;;;;11.83;93.38;95622.78;6156842;23;20156;-78
2021/09/20 01:36:10;;;;;;;15.20;12.60;;;;;;;11.85;93.08;95625.25;6133042;23;20186;-79
2021/09/20 01:38:35;;;;;;;15.53;11.73;;;;;;;11.85;93.25;95622.66;6158616;23;20162;-79
2021/09/20 01:41:01;;;;;;;14.80;12.77;;;;;;;11.83;93.37;95629.75;6158393;23;20206;-79
2021/09/20 01:43:26;;;;;;;15.37;12.40;;;;;;;11.80;93.33;95620.50;6133431;23;20160;-79
2021/09/20 01:45:52;;;;;;;15.73;12.53;;;;;;;11.79;93.58;95618.81;6157217;23;20175;-79
2021/09/20 01:48:18;;;;;;;16.40;13.13;;;;;;;11.77;94.04;95619.97;6158566;23;20190;-78
2021/09/20 01:50:44;;;;;;;17.20;13.33;;;;;;;11.81;93.65;95619.50;6133632;23;20183;-80
2021/09/20 01:53:09;;;;;;;16.17;12.63;;;;;;;11.83;93.75;95619.34;6158586;23;20557;-79
2021/09/20 01:55:34;;;;;;;16.77;12.63;;;;;;;11.82;93.80;95623.75;6158183;23;20185;-79
2021/09/20 01:58:00;;;;;;;14.90;11.73;;;;;;;11.85;93.81;95617.44;6159922;23;20155;-78
2021/09/20 02:00:25;;;;;;;13.70;11.30;;;;;;;11.85;93.80;95620.03;6157218;23;20159;-79
2021/09/20 02:02:51;;;;;;;15.27;12.03;;;;;;;11.83;93.65;95616.75;6159517;23;20152;-80
2021/09/20 02:05:16;;;;;;;15.03;11.70;;;;;;;11.82;93.34;95622.94;6134009;23;20233;-80
2021/09/20 02:07:42;;;;;;;18.93;11.53;;;;;;;11.80;93.95;95619.66;6156870;23;20170;-79
2021/09/20 02:10:10;;;;;;;16.43;12.70;;;;;;;11.79;94.31;95618.81;6157382;23;20159;-79
2021/09/20 02:12:35;;;;;;;14.33;12.13;;;;;;;11.78;94.56;95621.59;6132458;23;20255;-78
2021/09/20 02:15:01;;;;;;;16.40;12.47;;;;;;;11.77;94.51;95619.97;6156739;23;20601;-79
2021/09/20 02:17:26;;;;;;;14.17;11.67;;;;;;;11.75;94.47;95621.88;6157073;23;20167;-79
2021/09/20 02:19:51;;;;;;;12.60;11.10;;;;;;;11.79;94.40;95625.81;6157551;23;20597;-79
2021/09/20 02:22:17;;;;;;;15.00;12.27;;;;;;;11.67;94.95;95616.66;6132943;23;20166;-78
2021/09/20 02:24:43;;;;;;;14.03;11.73;;;;;;;11.71;94.34;95620.56;6131937;23;20178;-79
2021/09/20 02:27:08;;;;;;;15.17;11.63;;;;;;;11.61;95.49;95612.84;6157277;23;20258;-80
2021/09/20 02:29:34;;;;;;;15.57;12.57;;;;;;;11.61;96.04;95618.06;6157369;23;20175;-78
2021/09/20 02:31:59;;;;;;;17.13;13.20;;;;;;;11.58;96.02;95624.38;6132727;23;20601;-78
2021/09/20 02:34:25;;;;;;;20.10;14.67;;;;;;;11.51;97.00;95614.75;6131734;23;20159;-79
2021/09/20 02:36:50;;;;;;;19.60;13.97;;;;;;;11.53;97.49;95618.81;6157094;23;20183;-78
2021/09/20 02:39:16;;;;;;;22.13;15.17;;;;;;;11.56;97.27;95620.28;6157193;23;20158;-79
2021/09/20 02:41:41;;;;;;;20.10;14.63;;;;;;;11.43;98.34;95615.50;6156891;23;20179;-79
2021/09/20 02:44:08;;;;;;;19.93;14.73;;;;;;;11.54;98.06;95619.63;6156028;23;20159;-79
2021/09/20 02:46:34;;;;;;;20.47;15.40;;;;;;;11.51;98.11;95625.16;6157638;23;20182;-79
2021/09/20 02:48:59;;;;;;;22.47;15.30;;;;;;;11.51;98.39;95610.34;6157128;23;20696;-79
2021/09/20 02:51:24;;;;;;;19.73;15.43;;;;;;;11.52;98.38;95617.19;6133129;23;20163;-78
2021/09/20 02:53:50;;;;;;;20.23;14.87;;;;;;;11.54;98.02;95620.44;6131681;23;20166;-79
2021/09/20 02:56:15;;;;;;;24.67;15.57;;;;;;;11.58;98.28;95615.78;6156933;23;20528;-79
2021/09/20 02:58:40;;;;;;;22.37;16.10;;;;;;;11.62;98.22;95617.91;6157914;23;20159;-79
2021/09/20 03:01:06;;;;;;;19.33;15.40;;;;;;;11.55;98.23;95616.88;6157747;23;20162;-80
2021/09/20 03:03:31;;;;;;;20.47;15.27;;;;;;;11.58;98.49;95615.78;6132568;23;20155;-79
2021/09/20 03:05:56;;;;;;;20.40;15.33;;;;;;;11.59;98.28;95627.81;6155702;23;20210;-79
2021/09/20 03:08:22;;;;;;;19.70;15.40;;;;;;;11.62;98.18;95623.09;6132324;23;20175;-79
2021/09/20 03:10:47;;;;;;;19.40;14.97;;;;;;;11.67;98.04;95621.84;6156578;23;20171;-79
2021/09/20 03:13:12;;;;;;;18.30;14.70;;;;;;;11.62;98.00;95620.50;6156853;23;20163;-79
2021/09/20 03:15:38;;;;;;;17.80;15.00;;;;;;;11.66;97.97;95623.63;6156782;23;20175;-78
2021/09/20 03:18:03;;;;;;;19.43;15.20;;;;;;;11.70;98.03;95621.53;6157267;23;20501;-79
2021/09/20 03:20:28;;;;;;;18.43;15.10;;;;;;;11.74;97.92;95625.44;6156760;23;20155;-79
2021/09/20 03:22:54;;;;;;;16.67;14.20;;;;;;;11.76;97.84;95623.53;6157320;23;20636;-80
2021/09/20 03:25:19;;;;;;;19.97;16.07;;;;;;;11.78;97.80;95629.41;6131798;23;20793;-80
2021/09/20 03:27:45;;;;;;;20.03;14.80;;;;;;;11.80;97.56;95627.47;6156430;23;20370;-80
2021/09/20 03:30:11;;;;;;;18.57;14.50;;;;;;;11.79;97.42;95625.81;6131694;23;20226;-79
2021/09/20 03:32:37;;;;;;;19.13;14.40;;;;;;;11.82;97.40;95623.75;6157260;23;20193;-79
2021/09/20 03:35:03;;;;;;;20.37;15.93;;;;;;;11.79;97.26;95626.63;6156620;23;20155;-79
2021/09/20 03:37:29;;;;;;;18.33;14.27;;;;;;;11.82;97.28;95628.13;6157344;23;20624;-80
2021/09/20 03:39:54;;;;;;;18.03;14.13;;;;;;;11.85;97.33;95627.84;6157262;23;20147;-80
2021/09/20 03:42:19;;;;;;;18.50;14.17;;;;;;;11.86;97.42;95619.06;6159245;23;20151;-80
2021/09/20 03:44:45;;;;;;;18.80;13.60;;;;;;;11.86;97.30;95616.47;6156340;23;20159;-79
2021/09/20 03:47:10;;;;;;;18.73;14.37;;;;;;;11.83;97.23;95619.34;6157119;23;20171;-79
2021/09/20 03:49:35;;;;;;;18.10;13.70;;;;;;;11.81;97.29;95621.31;6158229;23;20188;-80
2021/09/20 03:52:01;;;;;;;18.77;14.03;;;;;;;11.83;97.01;95627.97;6157265;23;20159;-79
2021/09/20 03:54:26;;;;;;;17.63;14.10;;;;;;;11.85;97.07;95631.28;6156899;23;20186;-80
2021/09/20 03:56:52;;;;;;;17.70;14.20;;;;;;;11.82;96.93;95630.75;6158236;23;20182;-80
2021/09/20 03:59:17;;;;;;;18.77;13.73;;;;;;;11.86;97.04;95634.69;6159274;23;20202;-79
2021/09/20 04:01:42;;;;;;;16.27;12.97;;;;;;;11.89;97.25;95634.38;6134476;23;20155;-79
2021/09/20 04:04:07;;;;;;;17.53;13.03;;;;;;;11.91;96.82;95632.41;6157921;23;20170;-80
2021/09/20 04:06:33;;;;;;;18.03;13.47;;;;;;;11.92;97.06;95634.06;6157705;23;20175;-80
2021/09/20 04:09:02;;;;;;;18.03;13.63;;;;;;;11.92;96.89;95639.25;6158652;23;20171;-80
2021/09/20 04:11:28;;;;;;;18.27;13.90;;;;;;;11.93;96.89;95630.50;6159056;23;20167;-79
2021/09/20 04:13:54;;;;;;;19.10;14.40;;;;;;;11.91;96.77;95630.63;6133470;23;20163;-81
2021/09/20 04:16:19;;;;;;;19.27;13.80;;;;;;;11.92;96.60;95634.06;6154974;23;20179;-81
2021/09/20 04:18:44;;;;;;;21.57;14.87;;;;;;;11.91;96.56;95629.81;6129016;23;20210;-81
2021/09/20 04:21:10;;;;;;;19.33;14.30;;;;;;;11.88;96.52;95637.94;6156637;23;20234;-81
2021/09/20 04:23:35;;;;;;;17.83;13.63;;;;;;;11.87;96.80;95636.31;6154523;23;20186;-82
2021/09/20 04:26:00;;;;;;;19.23;15.00;;;;;;;11.87;96.75;95638.91;6154988;23;20175;-82
2021/09/20 04:28:26;;;;;;;18.93;14.63;;;;;;;11.88;96.89;95638.75;6130492;23;20180;-81
2021/09/20 04:30:51;;;;;;;20.03;14.80;;;;;;;11.89;96.88;95644.78;6150073;23;20155;-81
2021/09/20 04:33:20;;;;;;;19.63;15.60;;;;;;;11.87;96.95;95641.50;6152527;23;20159;-81
2021/09/20 04:35:45;;;;;;;20.20;15.30;;;;;;;11.89;96.77;95645.59;6151651;23;20281;-81
2021/09/20 04:38:11;;;;;;;18.17;14.73;;;;;;;11.90;96.87;95643.81;6128281;23;20605;-81
2021/09/20 04:40:37;;;;;;;21.77;15.90;;;;;;;11.89;96.91;95650.78;6153750;23;20151;-81
2021/09/20 04:43:08;;;;;;;19.33;15.17;;;;;;;11.90;97.13;95651.59;6154286;23;20231;-81
2021/09/20 04:45:34;;;;;;;17.23;13.87;;;;;;;11.93;97.03;95647.88;6128558;23;20183;-82
2021/09/20 04:47:59;;;;;;;21.27;14.90;;;;;;;11.92;97.21;95657.47;6129239;23;20170;-81
2021/09/20 04:50:25;;;;;;;20.57;15.33;;;;;;;11.91;97.20;95651.44;6129256;23;20160;-81
2021/09/20 04:52:50;;;;;;;21.50;16.00;;;;;;;11.93;97.24;95661.72;6129303;23;20205;-82
2021/09/20 04:55:15;;;;;;;21.27;14.23;;;;;;;11.92;97.10;95660.06;6152303;23;20241;-81
2021/09/20 04:57:41;;;;;;;19.03;14.63;;;;;;;11.90;97.25;95660.22;6129689;23;20221;-81
2021/09/20 05:00:08;;;;;;;18.70;15.20;;;;;;;11.91;97.21;95664.47;6155245;23;20167;-81
2021/09/20 05:02:33;;;;;;;19.63;14.93;;;;;;;11.89;97.17;95660.38;6155491;23;20151;-81
2021/09/20 05:04:58;;;;;;;21.50;15.50;;;;;;;11.90;97.40;95667.22;6129521;23;20152;-81
2021/09/20 05:07:25;;;;;;;20.37;14.63;;;;;;;11.93;97.40;95668.69;6154541;23;20155;-81
2021/09/20 05:09:50;;;;;;;19.47;14.60;;;;;;;11.93;97.52;95672.13;6155917;23;20243;-81
2021/09/20 05:12:16;;;;;;;21.23;14.93;;;;;;;11.94;97.74;95672.97;6131572;23;20171;-81
2021/09/20 05:14:41;;;;;;;17.93;13.93;;;;;;;11.97;97.17;95672.63;6153551;23;20159;-80
2021/09/20 05:17:07;;;;;;;18.10;14.17;;;;;;;11.95;97.07;95669.38;6153987;23;20178;-81
2021/09/20 05:19:32;;;;;;;20.30;15.10;;;;;;;11.95;97.25;95669.38;6130244;23;20143;-82
2021/09/20 05:21:58;;;;;;;18.40;14.03;;;;;;;11.96;97.16;95676.22;6154354;23;20160;-81
2021/09/20 05:24:23;;;;;;;20.80;14.60;;;;;;;11.95;96.83;95675.41;6153836;23;20181;-82
2021/09/20 05:26:48;;;;;;;18.77;15.10;;;;;;;11.95;97.27;95675.41;6155731;23;20178;-81
2021/09/20 05:29:14;;;;;;;21.67;15.67;;;;;;;11.94;97.38;95683.38;6131830;23;20175;-83
2021/09/20 05:31:39;;;;;;;19.40;14.97;;;;;;;11.96;97.25;95677.03;6131883;23;20159;-84
2021/09/20 05:34:04;;;;;;;19.23;14.67;;;;;;;11.87;97.35;95683.16;6154186;23;20163;-82
2021/09/20 05:36:30;;;;;;;18.07;13.97;;;;;;;11.85;97.18;95682.50;6129783;23;20660;-82
2021/09/20 05:38:55;;;;;;;20.10;14.27;;;;;;;11.93;97.00;95682.56;6154183;23;20162;-82
2021/09/20 05:41:20;;;;;;;20.63;14.23;;;;;;;11.94;97.31;95689.38;6129672;23;20508;-83
2021/09/20 05:43:46;;;;;;;20.67;14.10;;;;;;;11.90;97.05;95693.25;6129232;23;20620;-83
2021/09/20 05:46:11;;;;;;;17.13;13.90;;;;;;;11.88;97.48;95684.78;6153789;23;20194;-83
2021/09/20 05:48:36;;;;;;;18.97;14.17;;;;;;;11.91;97.47;95687.06;6154387;23;20179;-79
2021/09/20 05:51:02;;;;;;;17.50;13.90;;;;;;;11.96;97.45;95689.22;6152621;23;20159;-79
2021/09/20 05:53:27;;;;;;;17.13;14.87;;;;;;;11.99;97.40;95684.53;6151680;23;20199;-78
2021/09/20 05:55:53;;;;;;;19.87;14.20;;;;;;;12.01;97.29;95682.56;6151454;23;20245;-80
2021/09/20 05:58:18;;;;;;;20.73;14.00;;;;;;;12.04;97.32;95682.28;6152697;23;20193;-79
2021/09/20 06:00:43;;;;;;;22.17;15.03;;;;;;;12.04;97.29;95686.69;6127314;23;20159;-78
2021/09/20 06:03:09;;;;;;;18.10;14.63;;;;;;;12.08;97.00;95690.59;6125895;23;20559;-79
2021/09/20 06:05:38;;;;;;;20.50;15.40;;;;;;;12.07;96.76;95697.59;6126918;23;20179;-78
2021/09/20 06:08:04;;;;;;;19.10;15.10;;;;;;;12.06;97.10;95693.34;6156254;23;20624;-82
2021/09/20 06:10:30;;;;;;;20.87;15.87;;;;;;;12.10;96.62;95692.09;6160592;23;20151;-81
2021/09/20 06:12:56;;;;;;;20.73;14.67;;;;;;;12.14;96.78;95700.41;6134476;23;20270;-80
2021/09/20 06:15:22;;;;;;;18.57;14.50;;;;;;;12.15;96.43;95702.84;6157212;23;20171;-80
2021/09/20 06:17:47;;;;;;;17.63;14.50;;;;;;;12.22;96.41;95704.84;6135492;23;20163;-79
2021/09/20 06:20:13;;;;;;;18.67;14.83;;;;;;;12.24;96.25;95702.91;6156924;23;20147;-81
2021/09/20 06:22:38;;;;;;;15.67;13.20;;;;;;;12.30;96.15;95710.09;6159382;23;20159;-80
2021/09/20 06:25:05;;;;;;;17.57;14.30;;;;;;;12.32;95.93;95710.75;6131889;23;20191;-80
2021/09/20 06:27:30;;;;;;;15.97;13.10;;;;;;;12.32;95.45;95716.78;6157780;23;20182;-80
2021/09/20 06:29:55;;;;;;;19.90;14.87;;;;;;;12.32;95.49;95708.16;6156846;23;20514;-80
2021/09/20 06:32:21;;;;;;;17.80;13.70;;;;;;;12.34;95.52;95717.44;6156332;23;20494;-81
2021/09/20 06:34:47;;;;;;;19.43;14.60;;;;;;;12.35;94.97;95713.06;6130502;23;20161;-80
2021/09/20 06:37:12;;;;;;;19.10;13.97;;;;;;;12.40;94.95;95709.03;6156730;23;20171;-80
2021/09/20 06:39:38;;;;;;;18.87;13.77;;;;;;;12.46;94.76;95710.19;6131514;23;20170;-81
2021/09/20 06:42:05;;;;;;;22.00;18.80;;;;;;;12.52;94.58;95708.75;6138064;23;20230;-78
2021/09/20 06:44:31;;;;;;;20.67;17.83;;;;;;;12.57;93.96;95707.31;6164407;23;20170;-79
2021/09/20 06:46:56;;;;;;;24.00;18.57;;;;;;;12.67;93.72;95702.81;6164393;23;20170;-78
2021/09/20 06:49:22;;;;;;;15.53;13.63;;;;;;;12.72;93.02;95704.91;6166242;23;20179;-79
2021/09/20 06:51:48;;;;;;;16.33;13.20;;;;;;;12.70;92.74;95705.09;6138189;23;20166;-79
2021/09/20 06:54:13;;;;;;;14.73;12.30;;;;;;;12.84;92.12;95708.09;6131519;23;20159;-78
2021/09/20 06:56:38;;;;;;;18.00;13.67;;;;;;;12.85;91.52;95714.91;6156003;23;20186;-80
2021/09/20 06:59:04;;;;;;;13.17;11.77;;;;;;;12.88;91.96;95714.59;6154267;23;20160;-80
2021/09/20 07:01:29;;;;;;;15.53;13.37;;;;;;;12.82;91.64;95707.44;6129639;23;20155;-80
2021/09/20 07:03:55;;;;;;;15.57;13.07;;;;;;;12.92;91.51;95703.72;6129098;23;20166;-80
2021/09/20 07:06:20;;;;;;;15.97;13.17;;;;;;;12.85;91.43;95709.72;6154451;23;20167;-80
2021/09/20 07:08:45;;;;;;;14.70;13.13;;;;;;;12.86;91.41;95704.34;6153776;23;20692;-80
2021/09/20 07:11:11;;;;;;;16.80;14.73;;;;;;;12.98;91.16;95694.44;6155878;23;20151;-80
2021/09/20 07:13:36;;;;;;;16.93;14.23;;;;;;;13.07;90.71;95692.66;6153051;23;20206;-80
2021/09/20 07:16:01;;;;;;;13.97;12.47;;;;;;;13.22;89.97;95694.53;6154113;23;20167;-80
2021/09/20 07:18:26;;;;;;;14.73;12.27;;;;;;;13.39;89.83;95697.16;6154279;23;20155;-80
2021/09/20 07:20:52;;;;;;;15.70;12.17;;;;;;;13.48;88.01;95701.41;6153524;23;20159;-81
2021/09/20 07:23:17;;;;;;;16.70;15.00;;;;;;;13.71;88.41;95706.81;6129719;23;20155;-79
2021/09/20 07:25:42;;;;;;;14.97;13.00;;;;;;;13.79;nan;95705.03;6152846;23;20178;-80
2021/09/20 07:28:08;;;;;;;15.10;13.27;;;;;;;13.95;87.06;95713.81;6155207;23;20762;-79
2021/09/20 07:30:33;;;;;;;14.57;12.13;;;;;;;14.00;87.00;95720.19;6154115;23;20618;-80
2021/09/20 07:32:59;;;;;;;12.33;11.03;;;;;;;13.66;86.25;95716.91;6131537;23;20164;-81
2021/09/20 07:35:24;;;;;;;16.13;11.37;;;;;;;13.64;87.42;95724.91;6154869;23;20262;-80
2021/09/20 07:37:53;;;;;;;23.53;12.80;;;;;;;13.55;87.24;95729.31;6130703;23;20619;-79
2021/09/20 07:40:23;;;;;;;14.83;13.30;;;;;;;13.46;86.21;95724.25;6155945;23;20610;-80
2021/09/20 07:42:50;;;;;;;13.90;12.40;;;;;;;13.37;86.69;95728.63;6157085;23;20147;-79
2021/09/20 07:45:15;;;;;;;12.40;11.10;;;;;;;13.37;86.76;95728.63;6154964;23;20299;-80
2021/09/20 07:47:41;;;;;;;12.93;11.63;;;;;;;13.26;86.88;95729.75;6156070;23;20234;-79
2021/09/20 07:50:07;;;;;;;14.27;12.87;;;;;;;13.42;86.95;95731.56;6131487;23;20187;-78
2021/09/20 07:52:33;;;;;;;15.33;13.70;;;;;;;13.63;87.70;95731.13;6156772;23;20151;-78
2021/09/20 07:54:58;;;;;;;12.37;10.80;;;;;;;13.79;85.93;95736.34;6128777;23;20202;-77
2021/09/20 07:57:24;;;;;;;13.03;11.73;;;;;;;14.08;83.40;95738.47;6154041;23;20622;-77
2021/09/20 07:59:50;;;;;;;13.30;11.93;;;;;;;14.34;83.09;95740.88;6130549;23;20179;-78
2021/09/20 08:02:15;;;;;;;14.47;11.80;;;;;;;14.20;81.96;95754.59;6159612;23;20162;-79
2021/09/20 08:04:40;;;;;;;11.60;10.50;;;;;;;14.30;82.79;95744.78;6161641;23;20234;-78
2021/09/20 08:07:06;;;;;;;11.00;9.80;;;;;;;14.50;81.38;95741.88;6162882;23;20202;-78
2021/09/20 08:09:31;;;;;;;11.70;9.73;;;;;;;14.66;80.99;95747.03;6163134;23;20555;-79
2021/09/20 08:11:56;;;;;;;11.03;9.93;;;;;;;14.72;78.98;95744.56;6162312;23;20160;-79
2021/09/20 08:14:22;;;;;;;12.57;10.93;;;;;;;14.49;79.09;95753.28;6155272;23;20169;-79
2021/09/20 08:16:47;;;;;;;11.30;10.13;;;;;;;14.62;78.92;95756.19;6131162;23;20183;-79
2021/09/20 08:19:12;;;;;;;10.83;9.73;;;;;;;14.59;78.93;95753.94;6130583;23;20182;-79
2021/09/20 08:21:38;;;;;;;11.20;9.83;;;;;;;14.53;78.45;95754.59;6155276;23;20503;-79
2021/09/20 08:24:03;;;;;;;11.97;10.70;;;;;;;14.46;79.03;95757.03;6154454;23;20183;-79
2021/09/20 08:26:29;;;;;;;12.33;11.03;;;;;;;14.53;79.83;95757.19;6155059;23;20194;-80
2021/09/20 08:28:54;;;;;;;13.03;11.17;;;;;;;14.56;81.11;95769.94;6130340;23;20180;-80
2021/09/20 08:31:20;;;;;;;15.57;12.53;;;;;;;14.13;82.54;95761.44;6155036;23;20234;-79
2021/09/20 08:33:45;;;;;;;14.40;12.87;;;;;;;13.84;84.89;95754.13;6154477;23;20166;-79
2021/09/20 08:36:11;;;;;;;14.30;12.67;;;;;;;13.99;83.17;95756.91;6154912;23;20186;-79
2021/09/20 08:38:37;;;;;;;16.67;12.67;;;;;;;14.48;80.90;95764.72;6156259;23;20174;-80
2021/09/20 08:41:02;;;;;;;13.53;12.13;;;;;;;14.50;79.75;95768.00;6131686;23;20190;-79
2021/09/20 08:43:28;;;;;;;13.13;11.70;;;;;;;14.72;77.98;95773.31;6130895;23;20644;-78
2021/09/20 08:46:01;;;;;;;13.40;12.00;;;;;;;14.92;77.52;95776.34;6133769;23;20239;-77
2021/09/20 08:48:27;;;;;;;13.57;12.23;;;;;;;14.58;77.56;95779.25;6136168;23;20186;-80
2021/09/20 08:50:53;;;;;;;14.17;12.77;;;;;;;14.81;76.87;95778.53;6132735;23;20198;-80
2021/09/20 08:53:18;;;;;;;13.57;12.17;;;;;;;14.91;76.12;95779.16;6157778;23;20152;-79
2021/09/20 08:55:43;;;;;;;14.37;12.83;;;;;;;14.79;76.83;95781.31;6157015;23;20191;-79
2021/09/20 08:58:09;;;;;;;13.67;12.27;;;;;;;14.91;76.21;95787.00;6155735;23;20169;-80
2021/09/20 09:00:34;;;;;;;16.27;12.53;;;;;;;14.63;77.89;95786.56;6155276;23;20155;-79
2021/09/20 09:03:02;;;;;;;15.40;13.80;;;;;;;14.48;77.53;95788.22;6131335;23;20165;-78
2021/09/20 09:05:29;;;;;;;12.93;11.60;;;;;;;14.60;75.44;95786.91;6155298;23;20171;-79
2021/09/20 09:07:57;;;;;;;12.83;11.50;;;;;;;14.89;74.47;95787.16;6156804;23;20151;-80
2021/09/20 09:10:25;;;;;;;12.67;11.37;;;;;;;15.34;73.85;95790.91;6156930;23;20549;-80
2021/09/20 09:12:52;;;;;;;14.90;13.20;;;;;;;15.09;73.61;95797.22;6131626;23;20159;-80
2021/09/20 09:15:19;;;;;;;14.40;12.70;;;;;;;15.11;73.86;95793.47;6155927;23;20171;-80
2021/09/20 09:17:46;;;;;;;13.60;12.30;;;;;;;14.98;74.62;95790.56;6131769;23;20155;-80
2021/09/20 09:20:23;;;;;;;13.97;12.20;;;;;;;15.58;73.69;95789.97;6132476;23;20243;-80
2021/09/20 09:23:06;;;;;;;13.88;12.20;;;;;;;15.68;70.62;95792.41;6132452;23;20223;-80
2021/09/20 09:25:40;;;;;;;13.77;11.73;;;;;;;15.62;71.27;95795.69;6156036;23;20239;-78
2021/09/20 09:28:16;;;;;;;13.48;12.13;;;;;;;16.13;70.68;95802.88;6131928;23;20632;-78
2021/09/20 09:30:47;;;;;;;12.55;11.20;;;;;;;16.28;70.31;95794.25;6156665;23;20146;-79
2021/09/20 09:33:21;;;;;;;14.00;12.43;;;;;;;15.78;68.92;95798.22;6157723;23;20191;-79
2021/09/20 09:35:55;;;;;;;11.98;10.88;;;;;;;15.86;70.26;95801.59;6131763;23;20186;-80
2021/09/20 09:38:21;;;;;;;12.85;11.55;;;;;;;15.67;68.38;95806.47;6155574;23;20159;-79
2021/09/20 09:40:57;;;;;;;13.25;11.88;;;;;;;15.77;69.29;95812.31;6156549;23;20159;-78
2021/09/20 09:43:34;;;;;;;14.15;11.88;;;;;;;15.68;70.12;95808.91;6155660;23;20135;-80
2021/09/20 09:46:02;;;;;;;16.10;12.80;;;;;;;15.10;72.76;95806.69;6132034;23;20237;-77
2021/09/20 09:48:30;;;;;;;14.75;12.88;;;;;;;15.23;72.12;95805.19;6158078;23;20179;-79
2021/09/20 09:50:58;;;;;;;14.50;12.90;;;;;;;14.99;72.24;95803.47;6133293;23;20246;-78
2021/09/20 09:53:32;;;;;;;14.57;13.02;;;;;;;14.98;74.42;95804.47;6157369;23;20158;-77
2021/09/20 09:56:00;;;;;;;15.73;13.20;;;;;;;15.22;72.79;95805.38;6131966;23;20194;-78
2021/09/20 09:58:26;;;;;;;16.85;13.57;;;;;;;15.14;73.50;95811.44;6156952;23;20155;-78
2021/09/20 10:01:13;;;;;;;16.15;13.43;;;;;;;15.11;74.30;95808.34;6131666;23;20586;-79
2021/09/20 10:04:24;;;;;;;15.35;13.82;;;;;;;15.08;74.23;95808.69;6136098;23;20152;-80
2021/09/20 10:06:55;;;;;;;14.80;13.20;;;;;;;15.08;74.93;95806.88;6159896;23;20199;-78
2021/09/20 10:09:25;;;;;;;17.08;13.68;;;;;;;15.07;75.10;95807.84;6159946;23;20178;-81
2021/09/20 10:11:53;;;;;;;17.55;13.30;;;;;;;15.11;74.17;95806.56;6159400;23;20493;-78
2021/09/20 10:14:20;;;;;;;15.73;13.80;;;;;;;14.83;75.74;95802.69;6159656;23;20238;-80
2021/09/20 10:16:48;;;;;;;16.80;13.90;;;;;;;14.90;74.97;95807.09;6137440;23;20179;-79
2021/09/20 10:19:13;;;;;;;16.45;14.05;;;;;;;14.64;76.78;95806.50;6135599;23;20601;-79
2021/09/20 10:21:39;;;;;;;15.52;13.00;;;;;;;14.50;77.15;95812.41;6137403;23;20193;-77
2021/09/20 10:24:04;;;;;;;16.92;14.18;;;;;;;14.55;76.95;95810.09;6157434;23;20159;-79
2021/09/20 10:26:30;;;;;;;19.43;15.07;;;;;;;14.08;78.73;95798.53;6156697;23;20186;-76
2021/09/20 10:28:58;;;;;;;18.43;15.27;;;;;;;14.24;78.18;95796.91;6158776;23;20504;-78
2021/09/20 10:31:25;;;;;;;16.00;14.33;;;;;;;14.48;76.28;95806.53;6160705;23;20556;-78
2021/09/20 10:34:19;;;;;;;16.53;14.80;;;;;;;14.27;77.81;95813.03;6158864;23;20162;-77
2021/09/20 10:37:09;;;;;;;16.93;13.57;;;;;;;14.33;78.28;95799.34;6157391;23;20257;-78
2021/09/20 10:39:56;;;;;;;17.93;14.20;;;;;;;14.28;78.55;95806.84;6134456;23;20486;-79
2021/09/20 10:42:43;;;;;;;20.50;14.97;;;;;;;14.10;79.36;95809.59;6162072;23;20516;-77
2021/09/20 10:45:34;;;;;;;19.27;13.90;;;;;;;14.67;76.39;95804.38;6162704;23;20238;-79
2021/09/20 10:48:20;;;;;;;18.63;12.67;;;;;;;14.73;75.53;95811.53;6165128;23;20590;-78
2021/09/20 10:50:55;;;;;;;15.13;13.23;;;;;;;14.43;76.24;95805.19;6138525;23;20143;-79
2021/09/20 10:53:33;;;;;;;17.20;13.13;;;;;;;14.34;76.91;95807.97;6139718;23;20223;-77
2021/09/20 10:56:01;;;;;;;17.10;13.33;;;;;;;14.87;75.50;95810.06;6165103;23;20190;-79
2021/09/20 10:58:27;;;;;;;17.00;13.50;;;;;;;14.82;74.58;95814.97;6155684;23;20199;-80
2021/09/20 11:01:11;;;;;;;18.13;12.63;;;;;;;15.25;73.04;95811.06;6153953;23;20534;-81
2021/09/20 11:03:51;;;;;;;15.87;13.00;;;;;;;15.13;72.99;95809.00;6153711;23;20151;-78
2021/09/20 11:06:34;;;;;;;14.40;12.90;;;;;;;15.03;71.74;95814.44;6131081;23;20179;-80
2021/09/20 11:08:59;;;;;;;13.67;11.37;;;;;;;15.40;71.45;95812.97;6156864;23;20561;-80
2021/09/20 11:11:42;;;;;;;16.83;12.57;;;;;;;15.61;70.04;95817.63;6158856;23;20151;-81
2021/09/20 11:14:16;;;;;;;17.17;12.43;;;;;;;15.35;70.14;95813.47;6156152;23;20155;-81
2021/09/20 11:16:55;;;;;;;13.75;11.52;;;;;;;15.29;68.36;95811.56;6151410;23;20183;-81
2021/09/20 11:19:31;;;;;;;14.93;13.33;;;;;;;15.51;69.81;95820.44;6128685;23;20190;-80